createdAt,value
2022-12-03T00:00:13.187Z,1.93
2022-12-03T00:02:42.061Z,1.93
2022-12-03T00:05:10.598Z,1.97
2022-12-03T00:07:38.675Z,1.97
2022-12-03T00:10:07.221Z,2.00
2022-12-03T00:12:35.130Z,2.05
2022-12-03T00:15:02.496Z,2.09
2022-12-03T00:17:30.032Z,2.11
2022-12-03T00:19:57.746Z,2.16
2022-12-03T00:22:29.318Z,2.16
2022-12-03T00:24:56.961Z,2.16
2022-12-03T00:27:24.586Z,2.17
2022-12-03T00:29:51.921Z,2.18
2022-12-03T00:32:19.339Z,2.18
2022-12-03T00:34:46.765Z,2.21
2022-12-03T00:37:14.133Z,2.23
2022-12-03T00:39:41.486Z,2.23
2022-12-03T00:42:08.846Z,2.20
2022-12-03T00:44:36.084Z,2.21
2022-12-03T00:47:03.643Z,2.14
2022-12-03T00:49:31.372Z,2.14
2022-12-03T00:51:58.661Z,2.10
2022-12-03T00:54:31.656Z,2.06
2022-12-03T00:56:59.612Z,2.03
2022-12-03T00:59:26.944Z,2.02
2022-12-03T01:01:54.386Z,1.96
2022-12-03T01:04:21.733Z,1.95
2022-12-03T01:06:49.524Z,1.93
2022-12-03T01:09:17.920Z,1.93
2022-12-03T01:11:46.310Z,1.86
2022-12-03T01:14:16.975Z,1.86
2022-12-03T01:16:44.754Z,1.87
2022-12-03T01:19:16.680Z,1.90
2022-12-03T01:21:46.488Z,1.86
2022-12-03T01:24:14.215Z,1.78
2022-12-03T01:26:41.977Z,1.73
2022-12-03T01:29:09.341Z,1.65
2022-12-03T01:31:55.335Z,1.59
2022-12-03T01:34:23.487Z,1.56
2022-12-03T01:36:52.622Z,1.51
2022-12-03T01:39:21.467Z,1.47
2022-12-03T01:41:51.599Z,1.48
2022-12-03T01:44:24.789Z,1.44
2022-12-03T01:46:53.687Z,1.47
2022-12-03T01:49:27.327Z,1.45
2022-12-03T01:51:55.838Z,1.39
2022-12-03T01:54:27.716Z,1.39
2022-12-03T01:56:55.751Z,1.35
2022-12-03T01:59:32.403Z,1.31
2022-12-03T02:02:11.502Z,1.31
2022-12-03T02:04:39.017Z,1.31
2022-12-03T02:07:24.640Z,1.35
2022-12-03T02:09:53.397Z,1.35
2022-12-03T02:12:27.120Z,1.32
2022-12-03T02:14:55.008Z,1.35
2022-12-03T02:17:22.968Z,1.35
2022-12-03T02:19:51.247Z,1.39
2022-12-03T02:22:19.533Z,1.42
2022-12-03T02:24:50.682Z,1.42
2022-12-03T02:27:18.558Z,1.44
2022-12-03T02:29:46.045Z,1.42
2022-12-03T02:32:13.558Z,1.41
2022-12-03T02:34:45.331Z,1.41
2022-12-03T02:37:34.742Z,1.39
2022-12-03T02:40:12.079Z,1.35
2022-12-03T02:42:39.891Z,1.32
2022-12-03T02:45:12.653Z,1.21
2022-12-03T02:47:54.305Z,1.18
2022-12-03T02:50:27.165Z,1.04
2022-12-03T02:52:56.939Z,0.99
2022-12-03T02:55:25.490Z,0.93
2022-12-03T02:57:53.252Z,0.87
2022-12-03T03:00:23.023Z,0.83
2022-12-03T03:02:50.974Z,0.76
2022-12-03T03:05:21.796Z,0.70
2022-12-03T03:07:52.587Z,0.70
2022-12-03T03:10:23.187Z,0.66
2022-12-03T03:12:52.755Z,0.68
2022-12-03T03:15:20.633Z,0.68
2022-12-03T03:17:50.503Z,0.61
2022-12-03T03:20:18.702Z,0.62
2022-12-03T03:22:46.371Z,0.58
2022-12-03T03:25:18.815Z,0.56
2022-12-03T03:27:46.223Z,0.56
2022-12-03T03:30:14.412Z,0.55
2022-12-03T03:32:42.649Z,0.53
2022-12-03T03:35:11.629Z,0.48
2022-12-03T03:37:39.466Z,0.51
2022-12-03T03:40:07.883Z,0.45
2022-12-03T03:42:35.840Z,0.46
2022-12-03T03:45:04.290Z,0.46
2022-12-03T03:47:32.252Z,0.44
2022-12-03T03:50:01.061Z,0.45
2022-12-03T03:52:28.572Z,0.49
2022-12-03T03:54:56.305Z,0.51
2022-12-03T03:57:24.043Z,0.58
2022-12-03T03:59:51.277Z,0.59
2022-12-03T04:02:24.640Z,0.65
2022-12-03T04:04:52.989Z,0.58
2022-12-03T04:07:20.757Z,0.51
2022-12-03T04:09:48.082Z,0.44
2022-12-03T04:12:34.419Z,0.38
2022-12-03T04:15:01.820Z,0.31
2022-12-03T04:17:29.074Z,0.28
2022-12-03T04:19:56.475Z,0.25
2022-12-03T04:22:42.284Z,0.25
2022-12-03T04:25:28.774Z,0.22
2022-12-03T04:28:14.901Z,0.21
2022-12-03T04:30:42.424Z,0.19
2022-12-03T04:33:28.740Z,0.25
2022-12-03T04:35:56.090Z,0.26
2022-12-03T04:38:23.529Z,0.31
2022-12-03T04:41:06.202Z,0.28
2022-12-03T04:43:35.059Z,0.25
2022-12-03T04:46:02.827Z,0.21
2022-12-03T04:48:30.620Z,0.17
2022-12-03T04:50:59.450Z,0.11
2022-12-03T04:53:27.493Z,0.04
2022-12-03T04:55:54.772Z,0.01
2022-12-03T04:58:22.276Z,0.04
2022-12-03T05:00:49.651Z,0.03
2022-12-03T05:03:17.378Z,0.03
2022-12-03T05:05:44.791Z,-0.05
2022-12-03T05:08:12.242Z,-0.03
2022-12-03T05:10:39.792Z,-0.07
2022-12-03T05:13:07.162Z,-0.16
2022-12-03T05:15:34.500Z,-0.21
2022-12-03T05:18:01.766Z,-0.23
2022-12-03T05:20:41.693Z,-0.21
2022-12-03T05:23:13.008Z,-0.20
2022-12-03T05:25:41.134Z,-0.21
2022-12-03T05:28:08.446Z,-0.28
2022-12-03T05:30:37.538Z,-0.34
2022-12-03T05:33:05.006Z,-0.37
2022-12-03T05:35:32.319Z,-0.40
2022-12-03T05:37:59.741Z,-0.38
2022-12-03T05:40:27.106Z,-0.40
2022-12-03T05:42:54.514Z,-0.45
2022-12-03T05:45:26.781Z,-0.37
2022-12-03T05:47:55.515Z,-0.21
2022-12-03T05:50:26.272Z,-0.06
2022-12-03T05:52:56.646Z,-0.03
2022-12-03T05:55:24.209Z,-0.10
2022-12-03T05:57:51.557Z,-0.18
2022-12-03T06:00:22.708Z,-0.28
2022-12-03T06:02:50.384Z,-0.37
2022-12-03T06:05:22.073Z,-0.37
2022-12-03T06:07:51.220Z,-0.37
2022-12-03T06:10:22.013Z,-0.28
2022-12-03T06:12:50.073Z,-0.26
2022-12-03T06:15:17.931Z,-0.16
2022-12-03T06:17:45.412Z,-0.09
2022-12-03T06:20:15.218Z,0.00
2022-12-03T06:22:42.570Z,0.11
2022-12-03T06:25:10.860Z,0.25
2022-12-03T06:27:38.313Z,0.32
2022-12-03T06:30:06.819Z,0.46
2022-12-03T06:32:34.362Z,0.61
2022-12-03T06:35:01.853Z,0.76
2022-12-03T06:37:29.219Z,0.97
2022-12-03T06:39:56.840Z,1.24
2022-12-03T06:42:24.269Z,1.47
2022-12-03T06:44:51.810Z,1.90
2022-12-03T06:47:19.274Z,2.37
2022-12-03T06:49:46.626Z,2.89
2022-12-03T06:52:13.951Z,3.28
2022-12-03T06:54:41.239Z,3.74
2022-12-03T06:57:08.605Z,4.36
2022-12-03T06:59:38.350Z,4.88
2022-12-03T07:02:05.807Z,4.84
2022-12-03T07:04:33.237Z,4.67
2022-12-03T07:07:00.596Z,5.06
2022-12-03T07:09:28.233Z,5.34
2022-12-03T07:11:58.402Z,6.01
2022-12-03T07:14:26.208Z,6.61
2022-12-03T07:16:53.494Z,6.98
2022-12-03T07:19:20.850Z,6.97
2022-12-03T07:21:48.308Z,6.46
2022-12-03T07:24:15.735Z,5.84
2022-12-03T07:26:46.289Z,6.09
2022-12-03T07:29:13.620Z,5.82
2022-12-03T07:31:41.438Z,5.90
2022-12-03T07:34:09.196Z,6.19
2022-12-03T07:36:36.559Z,6.77
2022-12-03T07:39:05.216Z,6.63
2022-12-03T07:41:32.733Z,6.34
2022-12-03T07:44:00.197Z,5.84
2022-12-03T07:46:27.622Z,5.55
2022-12-03T07:48:55.272Z,5.85
2022-12-03T07:51:26.205Z,5.75
2022-12-03T07:53:57.966Z,5.26
2022-12-03T07:56:26.358Z,5.30
2022-12-03T07:58:54.740Z,5.82
2022-12-03T08:01:22.333Z,6.33
2022-12-03T08:03:53.466Z,6.15
2022-12-03T08:06:22.303Z,6.73
2022-12-03T08:08:50.570Z,6.78
2022-12-03T08:11:17.930Z,7.23
2022-12-03T08:13:46.156Z,7.05
2022-12-03T08:16:21.878Z,7.35
2022-12-03T08:18:50.887Z,8.15
2022-12-03T08:21:20.716Z,8.45
2022-12-03T08:23:48.515Z,8.69
2022-12-03T08:26:28.180Z,9.05
2022-12-03T08:29:02.400Z,10.30
2022-12-03T08:31:33.665Z,10.37
2022-12-03T08:34:43.180Z,12.23
2022-12-03T08:37:18.594Z,12.23
2022-12-03T08:39:48.519Z,11.19
2022-12-03T08:42:41.778Z,10.79
2022-12-03T08:45:39.959Z,12.32
2022-12-03T08:48:19.345Z,13.25
2022-12-03T08:50:46.990Z,13.22
2022-12-03T08:53:15.314Z,14.04
2022-12-03T08:55:48.594Z,15.27
2022-12-03T08:58:23.488Z,15.44
2022-12-03T09:00:57.913Z,15.23
2022-12-03T09:03:25.670Z,14.33
2022-12-03T09:05:53.230Z,14.49
2022-12-03T09:08:22.319Z,14.70
2022-12-03T09:10:49.746Z,15.23
2022-12-03T09:13:18.423Z,16.17
2022-12-03T09:15:45.849Z,16.64
2022-12-03T09:18:14.527Z,17.67
2022-12-03T09:20:41.935Z,19.04
2022-12-03T09:23:09.297Z,19.66
2022-12-03T09:25:36.622Z,17.68
2022-12-03T09:28:04.016Z,17.51
2022-12-03T09:30:31.355Z,19.07
2022-12-03T09:33:01.252Z,18.29
2022-12-03T09:35:28.681Z,17.75
2022-12-03T09:37:56.412Z,16.67
2022-12-03T09:40:23.993Z,17.07
2022-12-03T09:42:51.992Z,17.48
2022-12-03T09:45:19.974Z,16.17
2022-12-03T09:47:50.140Z,15.82
2022-12-03T09:50:23.608Z,15.18
2022-12-03T09:52:54.907Z,14.40
2022-12-03T09:55:25.634Z,13.50
2022-12-03T09:57:54.690Z,13.52
2022-12-03T10:00:28.516Z,12.37
2022-12-03T10:03:02.905Z,11.96
2022-12-03T10:05:39.227Z,12.08
2022-12-03T10:08:13.367Z,11.75
2022-12-03T10:10:42.163Z,10.80
2022-12-03T10:13:21.034Z,10.42
2022-12-03T10:15:55.424Z,10.64
2022-12-03T10:18:29.859Z,10.69
2022-12-03T10:20:58.076Z,11.23
2022-12-03T10:23:30.147Z,10.31
2022-12-03T10:25:58.876Z,10.77
2022-12-03T10:28:30.434Z,10.72
2022-12-03T10:30:59.196Z,9.41
2022-12-03T10:33:35.361Z,9.79
2022-12-03T10:36:26.325Z,9.52
2022-12-03T10:39:18.633Z,9.99
2022-12-03T10:41:46.356Z,10.10
2022-12-03T10:44:19.077Z,10.35
2022-12-03T10:47:05.990Z,11.52
2022-12-03T10:49:33.665Z,11.57
2022-12-03T10:52:02.147Z,11.41
2022-12-03T10:54:31.678Z,12.23
2022-12-03T10:56:59.025Z,12.29
2022-12-03T10:59:31.838Z,12.80
2022-12-03T11:01:59.658Z,12.84
2022-12-03T11:04:33.905Z,12.89
2022-12-03T11:07:14.348Z,13.75
2022-12-03T11:09:45.421Z,13.97
2022-12-03T11:12:26.672Z,14.02
2022-12-03T11:14:55.487Z,13.78
2022-12-03T11:17:43.858Z,13.60
2022-12-03T11:20:22.826Z,13.40
2022-12-03T11:22:58.318Z,13.40
2022-12-03T11:25:26.135Z,13.49
2022-12-03T11:28:15.023Z,13.25
2022-12-03T11:30:52.417Z,12.81
2022-12-03T11:33:34.502Z,13.06
2022-12-03T11:36:04.937Z,13.26
2022-12-03T11:38:38.422Z,13.23
2022-12-03T11:41:30.352Z,13.64
2022-12-03T11:43:58.952Z,14.08
2022-12-03T11:46:38.408Z,13.54
2022-12-03T11:49:31.823Z,13.50
2022-12-03T11:52:03.107Z,13.44
2022-12-03T11:54:35.109Z,13.16
2022-12-03T11:57:04.105Z,13.23
2022-12-03T11:59:33.557Z,12.98
2022-12-03T12:02:00.875Z,12.89
2022-12-03T12:04:28.238Z,12.64
2022-12-03T12:06:55.718Z,11.99
2022-12-03T12:09:55.161Z,11.72
2022-12-03T12:12:39.327Z,11.24
2022-12-03T12:15:39.320Z,11.23
2022-12-03T12:18:34.077Z,11.19
2022-12-03T12:21:43.117Z,11.17
2022-12-03T12:24:41.109Z,11.20
2022-12-03T12:27:13.692Z,11.23
2022-12-03T12:29:42.536Z,11.13
2022-12-03T12:32:10.761Z,10.77
2022-12-03T12:34:40.320Z,10.55
2022-12-03T12:37:37.109Z,10.41
2022-12-03T12:40:13.514Z,10.44
2022-12-03T12:43:14.405Z,10.64
2022-12-03T12:45:45.412Z,10.65
2022-12-03T12:48:16.112Z,10.59
2022-12-03T12:50:47.426Z,11.13
2022-12-03T12:53:34.117Z,10.93
2022-12-03T12:56:30.236Z,11.09
2022-12-03T12:59:09.363Z,10.77
2022-12-03T13:01:36.863Z,10.69
2022-12-03T13:04:14.140Z,10.66
2022-12-03T13:06:42.883Z,10.62
2022-12-03T13:09:17.754Z,10.51
2022-12-03T13:11:47.275Z,10.54
2022-12-03T13:14:26.340Z,10.49
2022-12-03T13:16:56.688Z,10.37
2022-12-03T13:19:26.779Z,10.22
2022-12-03T13:21:56.361Z,10.07
2022-12-03T13:24:32.694Z,9.94
2022-12-03T13:27:08.803Z,9.86
2022-12-03T13:29:36.341Z,9.69
2022-12-03T13:32:13.391Z,9.73
2022-12-03T13:34:41.441Z,9.62
2022-12-03T13:37:19.818Z,9.58
2022-12-03T13:39:52.805Z,9.43
2022-12-03T13:42:39.415Z,9.32
2022-12-03T13:45:15.863Z,9.43
2022-12-03T13:47:53.348Z,9.35
2022-12-03T13:50:38.620Z,9.24
2022-12-03T13:53:20.852Z,9.18
2022-12-03T13:56:08.660Z,9.20
2022-12-03T13:58:37.608Z,9.08
2022-12-03T14:01:06.400Z,9.10
2022-12-03T14:03:33.841Z,9.15
2022-12-03T14:06:01.220Z,9.15
2022-12-03T14:08:28.682Z,9.10
2022-12-03T14:11:00.337Z,9.08
2022-12-03T14:13:28.392Z,9.08
2022-12-03T14:15:56.108Z,9.11
2022-12-03T14:18:24.296Z,9.18
2022-12-03T14:20:55.101Z,9.24
2022-12-03T14:23:23.069Z,9.21
2022-12-03T14:25:50.409Z,9.21
2022-12-03T14:28:19.084Z,9.22
2022-12-03T14:30:46.564Z,9.14
2022-12-03T14:33:14.437Z,9.05
2022-12-03T14:35:41.755Z,8.93
2022-12-03T14:38:10.219Z,8.80
2022-12-03T14:40:37.526Z,8.64
2022-12-03T14:43:04.864Z,8.48
2022-12-03T14:45:32.401Z,8.31
2022-12-03T14:47:59.799Z,8.14
2022-12-03T14:50:27.376Z,7.98
2022-12-03T14:52:56.109Z,7.76
2022-12-03T14:55:23.577Z,7.55
2022-12-03T14:57:50.978Z,7.32
2022-12-03T15:00:22.589Z,7.14
2022-12-03T15:02:50.074Z,6.98
2022-12-03T15:05:19.281Z,6.80
2022-12-03T15:07:50.534Z,6.66
2022-12-03T15:10:18.512Z,6.50
2022-12-03T15:12:46.290Z,6.43
2022-12-03T15:15:14.257Z,6.36
2022-12-03T15:17:45.705Z,6.28
2022-12-03T15:20:13.530Z,6.19
2022-12-03T15:22:41.087Z,6.06
2022-12-03T15:25:09.768Z,5.98
2022-12-03T15:27:37.274Z,5.92
2022-12-03T15:30:06.213Z,5.87
2022-12-03T15:32:34.186Z,5.81
2022-12-03T15:35:01.576Z,5.79
2022-12-03T15:37:28.878Z,5.75
2022-12-03T15:39:58.590Z,5.71
2022-12-03T15:42:28.036Z,5.71
2022-12-03T15:44:55.423Z,5.64
2022-12-03T15:47:22.734Z,5.68
2022-12-03T15:49:50.248Z,5.65
2022-12-03T15:52:18.615Z,5.77
2022-12-03T15:54:45.968Z,5.78
2022-12-03T15:57:13.427Z,5.79
2022-12-03T15:59:40.773Z,5.74
2022-12-03T16:02:08.166Z,5.65
2022-12-03T16:04:36.185Z,5.74
2022-12-03T16:07:03.883Z,5.73
2022-12-03T16:09:31.353Z,5.73
2022-12-03T16:11:58.661Z,5.70
2022-12-03T16:14:26.523Z,5.71
2022-12-03T16:17:00.014Z,5.68
2022-12-03T16:19:27.402Z,5.70
2022-12-03T16:21:54.698Z,5.68
2022-12-03T16:24:22.084Z,5.68
2022-12-03T16:26:49.370Z,5.73
2022-12-03T16:29:16.702Z,5.75
2022-12-03T16:31:44.311Z,5.73
2022-12-03T16:34:12.519Z,5.75
2022-12-03T16:36:43.234Z,5.73
2022-12-03T16:39:12.757Z,5.70
2022-12-03T16:41:40.310Z,5.65
2022-12-03T16:44:07.961Z,5.64
2022-12-03T16:46:35.424Z,5.68
2022-12-03T16:49:03.742Z,5.68
2022-12-03T16:51:31.158Z,5.68
2022-12-03T16:53:58.430Z,5.67
2022-12-03T16:56:25.698Z,5.75
2022-12-03T16:58:53.065Z,5.84
2022-12-03T17:01:23.361Z,5.84
2022-12-03T17:03:50.873Z,5.90
2022-12-03T17:06:18.159Z,5.87
2022-12-03T17:08:49.410Z,5.85
2022-12-03T17:11:17.864Z,5.95
2022-12-03T17:13:46.193Z,5.94
2022-12-03T17:16:13.966Z,5.85
2022-12-03T17:18:41.607Z,5.81
2022-12-03T17:21:08.977Z,5.87
2022-12-03T17:23:36.309Z,5.90
2022-12-03T17:26:03.769Z,5.94
2022-12-03T17:28:31.048Z,5.92
2022-12-03T17:30:58.468Z,5.85
2022-12-03T17:33:28.218Z,5.82
2022-12-03T17:35:55.840Z,5.73
2022-12-03T17:38:23.092Z,5.70
2022-12-03T17:40:50.463Z,5.64
2022-12-03T17:43:17.815Z,5.58
2022-12-03T17:45:45.494Z,5.50
2022-12-03T17:48:12.833Z,5.46
2022-12-03T17:50:40.132Z,5.50
2022-12-03T17:53:10.334Z,5.48
2022-12-03T17:55:44.344Z,5.43
2022-12-03T17:58:13.349Z,5.37
2022-12-03T18:00:40.732Z,5.43
2022-12-03T18:03:08.055Z,5.32
2022-12-03T18:05:35.704Z,5.26
2022-12-03T18:08:03.450Z,5.25
2022-12-03T18:10:30.919Z,5.42
2022-12-03T18:13:01.646Z,5.54
2022-12-03T18:15:30.808Z,5.55
2022-12-03T18:17:58.446Z,5.46
2022-12-03T18:20:25.828Z,5.53
2022-12-03T18:22:53.392Z,5.57
2022-12-03T18:25:20.757Z,5.58
2022-12-03T18:27:48.071Z,5.60
2022-12-03T18:30:15.650Z,5.64
2022-12-03T18:32:42.996Z,5.67
2022-12-03T18:35:10.319Z,5.61
2022-12-03T18:37:37.677Z,5.55
2022-12-03T18:40:12.899Z,5.47
2022-12-03T18:42:40.730Z,5.23
2022-12-03T18:45:11.750Z,5.15
2022-12-03T18:47:39.206Z,5.20
2022-12-03T18:50:07.920Z,5.23
2022-12-03T18:52:35.341Z,5.18
2022-12-03T18:55:05.140Z,5.16
2022-12-03T18:57:32.516Z,5.16
2022-12-03T19:00:00.239Z,5.22
2022-12-03T19:05:29.683Z,5.36
2022-12-03T19:07:57.523Z,5.44
2022-12-03T19:10:27.690Z,5.50
2022-12-03T19:12:55.130Z,5.47
2022-12-03T19:15:22.934Z,5.42
2022-12-03T19:17:51.274Z,5.37
2022-12-03T19:20:18.637Z,5.33
2022-12-03T19:22:46.257Z,5.26
2022-12-03T19:25:13.755Z,5.13
2022-12-03T19:27:44.339Z,5.15
2022-12-03T19:30:13.975Z,5.26
2022-12-03T19:32:42.293Z,5.36
2022-12-03T19:35:11.466Z,5.44
2022-12-03T19:37:39.291Z,5.53
2022-12-03T19:40:07.463Z,5.63
2022-12-03T19:42:34.754Z,5.68
2022-12-03T19:45:02.040Z,5.77
2022-12-03T19:47:29.368Z,5.81
2022-12-03T19:49:57.036Z,5.82
2022-12-03T19:52:24.812Z,5.84
2022-12-03T19:54:52.480Z,5.84
2022-12-03T19:57:23.215Z,5.84
2022-12-03T19:59:51.096Z,5.82
2022-12-03T20:02:18.476Z,5.90
2022-12-03T20:04:45.944Z,6.01
2022-12-03T20:07:16.941Z,6.05
2022-12-03T20:09:51.838Z,6.13
2022-12-03T20:12:20.223Z,6.18
2022-12-03T20:14:49.900Z,6.22
2022-12-03T20:17:17.474Z,6.26
2022-12-03T20:19:44.956Z,6.33
2022-12-03T20:22:14.456Z,6.37
2022-12-03T20:24:43.993Z,6.39
2022-12-03T20:27:12.341Z,6.40
2022-12-03T20:29:39.798Z,6.42
2022-12-03T20:32:07.288Z,6.44
2022-12-03T20:34:36.027Z,6.47
2022-12-03T20:37:03.587Z,6.47
2022-12-03T20:39:31.004Z,6.44
2022-12-03T20:41:58.378Z,6.46
2022-12-03T20:44:25.703Z,6.42
2022-12-03T20:46:53.124Z,6.46
2022-12-03T20:49:20.462Z,6.43
2022-12-03T20:51:50.376Z,6.42
2022-12-03T20:54:17.845Z,6.32
2022-12-03T20:56:45.154Z,6.28
2022-12-03T20:59:14.485Z,6.22
2022-12-03T21:01:42.988Z,6.19
2022-12-03T21:04:13.498Z,6.09
2022-12-03T21:06:42.352Z,5.90
2022-12-03T21:09:11.107Z,5.78
2022-12-03T21:11:42.491Z,5.70
2022-12-03T21:14:11.424Z,5.55
2022-12-03T21:17:07.364Z,5.50
2022-12-03T21:19:32.100Z,5.43
2022-12-03T21:22:00.404Z,5.37
2022-12-03T21:24:30.036Z,5.27
2022-12-03T21:26:57.467Z,5.22
2022-12-03T21:29:25.132Z,5.22
2022-12-03T21:31:52.434Z,5.16
2022-12-03T21:34:19.876Z,5.12
2022-12-03T21:36:47.282Z,5.13
2022-12-03T21:39:14.581Z,5.15
2022-12-03T21:41:41.857Z,5.22
2022-12-03T21:44:29.173Z,5.26
2022-12-03T21:47:12.342Z,5.30
2022-12-03T21:49:41.576Z,5.30
2022-12-03T21:52:09.431Z,5.33
2022-12-03T21:54:36.875Z,5.32
2022-12-03T21:57:04.182Z,5.30
2022-12-03T21:59:31.550Z,5.27
2022-12-03T22:01:58.953Z,5.27
2022-12-03T22:04:28.069Z,5.30
2022-12-03T22:06:55.606Z,5.27
2022-12-03T22:09:26.489Z,5.33
2022-12-03T22:11:57.098Z,5.29
2022-12-03T22:14:24.842Z,5.26
2022-12-03T22:16:52.101Z,5.27
2022-12-03T22:19:22.924Z,5.23
2022-12-03T22:21:50.497Z,5.26
2022-12-03T22:24:19.266Z,5.22
2022-12-03T22:26:47.492Z,5.19
2022-12-03T22:29:15.019Z,5.20
2022-12-03T22:31:42.276Z,5.18
2022-12-03T22:34:09.563Z,5.26
2022-12-03T22:36:37.264Z,5.33
2022-12-03T22:39:04.959Z,5.33
2022-12-03T22:41:32.325Z,5.36
2022-12-03T22:43:59.686Z,5.34
2022-12-03T22:46:27.063Z,5.32
2022-12-03T22:48:54.380Z,5.27
2022-12-03T22:51:24.245Z,5.30
2022-12-03T22:53:59.018Z,5.34
2022-12-03T22:56:29.625Z,5.33
2022-12-03T22:58:57.469Z,5.30
2022-12-03T23:01:33.593Z,5.26
2022-12-03T23:04:01.988Z,5.25
2022-12-03T23:06:30.527Z,5.19
2022-12-03T23:08:59.056Z,5.11
2022-12-03T23:11:26.907Z,5.05
2022-12-03T23:13:54.418Z,5.00
2022-12-03T23:16:28.270Z,4.99
2022-12-03T23:18:57.668Z,4.95
2022-12-03T23:21:29.946Z,4.95
2022-12-03T23:24:03.341Z,4.95
2022-12-03T23:26:35.520Z,4.95
2022-12-03T23:29:03.917Z,4.96
2022-12-03T23:31:32.890Z,4.98
2022-12-03T23:34:01.209Z,4.99
2022-12-03T23:36:31.710Z,4.93
2022-12-03T23:38:58.994Z,4.91
2022-12-03T23:41:26.841Z,4.96
2022-12-03T23:43:54.607Z,4.89
2022-12-03T23:46:24.606Z,4.92
2022-12-03T23:48:52.079Z,4.95
2022-12-03T23:51:23.346Z,4.95
2022-12-03T23:53:52.878Z,4.96
2022-12-03T23:56:23.323Z,4.98
2022-12-03T23:58:50.727Z,4.98
